sensor_id;sensor_type;location;lat;lon;timestamp;P1;durP1;ratioP1;P2;durP2;ratioP2
21987;SDS011;11158;53.404;-1.510;2023-05-08T00:02:05;8.02;;;3.80;;
21987;SDS011;11158;53.404;-1.510;2023-05-08T00:04:49;7.97;;;4.45;;
21987;SDS011;11158;53.404;-1.510;2023-05-08T00:07:34;8.77;;;4.72;;
21987;SDS011;11158;53.404;-1.510;2023-05-08T00:10:19;7.07;;;4.55;;
21987;SDS011;11158;53.404;-1.510;2023-05-08T00:13:03;9.90;;;4.90;;
21987;SDS011;11158;53.404;-1.510;2023-05-08T00:15:47;8.18;;;5.32;;
21987;SDS011;11158;53.404;-1.510;2023-05-08T00:18:32;7.65;;;4.50;;
21987;SDS011;11158;53.404;-1.510;2023-05-08T00:21:16;8.45;;;4.30;;
21987;SDS011;11158;53.404;-1.510;2023-05-08T00:24:00;6.60;;;4.07;;
21987;SDS011;11158;53.404;-1.510;2023-05-08T00:26:44;9.18;;;4.07;;
21987;SDS011;11158;53.404;-1.510;2023-05-08T00:29:28;5.45;;;3.80;;
21987;SDS011;11158;53.404;-1.510;2023-05-08T00:32:13;7.82;;;4.20;;
21987;SDS011;11158;53.404;-1.510;2023-05-08T00:34:57;6.60;;;3.63;;
21987;SDS011;11158;53.404;-1.510;2023-05-08T00:37:41;7.07;;;3.70;;
21987;SDS011;11158;53.404;-1.510;2023-05-08T00:40:26;4.80;;;3.60;;
21987;SDS011;11158;53.404;-1.510;2023-05-08T00:43:11;5.93;;;3.38;;
21987;SDS011;11158;53.404;-1.510;2023-05-08T00:45:56;5.90;;;3.65;;
21987;SDS011;11158;53.404;-1.510;2023-05-08T00:48:43;6.32;;;4.18;;
21987;SDS011;11158;53.404;-1.510;2023-05-08T00:51:28;7.50;;;3.78;;
21987;SDS011;11158;53.404;-1.510;2023-05-08T00:54:14;3.70;;;2.90;;
21987;SDS011;11158;53.404;-1.510;2023-05-08T00:56:59;5.57;;;3.13;;
21987;SDS011;11158;53.404;-1.510;2023-05-08T00:59:44;6.78;;;3.63;;
21987;SDS011;11158;53.404;-1.510;2023-05-08T01:02:29;5.88;;;3.22;;
21987;SDS011;11158;53.404;-1.510;2023-05-08T01:05:14;5.35;;;3.63;;
21987;SDS011;11158;53.404;-1.510;2023-05-08T01:07:58;7.18;;;3.78;;
21987;SDS011;11158;53.404;-1.510;2023-05-08T01:10:47;6.13;;;3.60;;
21987;SDS011;11158;53.404;-1.510;2023-05-08T01:16:44;6.00;;;3.60;;
21987;SDS011;11158;53.404;-1.510;2023-05-08T01:19:54;4.05;;;3.42;;
21987;SDS011;11158;53.404;-1.510;2023-05-08T01:28:41;4.50;;;3.35;;
21987;SDS011;11158;53.404;-1.510;2023-05-08T01:34:25;4.18;;;3.05;;
21987;SDS011;11158;53.404;-1.510;2023-05-08T01:37:16;5.93;;;3.60;;
21987;SDS011;11158;53.404;-1.510;2023-05-08T01:40:09;4.10;;;3.20;;
21987;SDS011;11158;53.404;-1.510;2023-05-08T01:46:37;4.80;;;3.20;;
21987;SDS011;11158;53.404;-1.510;2023-05-08T01:49:22;4.32;;;3.08;;
21987;SDS011;11158;53.404;-1.510;2023-05-08T01:52:19;4.95;;;2.60;;
21987;SDS011;11158;53.404;-1.510;2023-05-08T01:55:11;10.27;;;2.97;;
21987;SDS011;11158;53.404;-1.510;2023-05-08T01:58:01;3.95;;;2.45;;
21987;SDS011;11158;53.404;-1.510;2023-05-08T02:00:50;4.85;;;2.50;;
21987;SDS011;11158;53.404;-1.510;2023-05-08T02:03:36;3.83;;;2.40;;
21987;SDS011;11158;53.404;-1.510;2023-05-08T02:06:22;5.47;;;1.83;;
21987;SDS011;11158;53.404;-1.510;2023-05-08T02:09:08;4.28;;;1.80;;
21987;SDS011;11158;53.404;-1.510;2023-05-08T02:11:54;3.85;;;1.58;;
21987;SDS011;11158;53.404;-1.510;2023-05-08T02:14:40;3.80;;;1.52;;
21987;SDS011;11158;53.404;-1.510;2023-05-08T02:17:24;2.47;;;1.90;;
21987;SDS011;11158;53.404;-1.510;2023-05-08T02:20:11;4.22;;;1.83;;
21987;SDS011;11158;53.404;-1.510;2023-05-08T02:22:57;2.53;;;1.27;;
21987;SDS011;11158;53.404;-1.510;2023-05-08T02:25:43;2.22;;;1.15;;
21987;SDS011;11158;53.404;-1.510;2023-05-08T02:28:29;2.33;;;1.13;;
21987;SDS011;11158;53.404;-1.510;2023-05-08T02:31:16;3.10;;;1.05;;
21987;SDS011;11158;53.404;-1.510;2023-05-08T02:34:01;2.65;;;1.10;;
21987;SDS011;11158;53.404;-1.510;2023-05-08T02:36:48;3.15;;;1.15;;
21987;SDS011;11158;53.404;-1.510;2023-05-08T02:39:34;1.75;;;0.90;;
21987;SDS011;11158;53.404;-1.510;2023-05-08T02:42:21;2.67;;;1.10;;
21987;SDS011;11158;53.404;-1.510;2023-05-08T02:45:05;2.30;;;1.23;;
21987;SDS011;11158;53.404;-1.510;2023-05-08T02:48:12;5.25;;;1.40;;
21987;SDS011;11158;53.404;-1.510;2023-05-08T02:54:16;3.95;;;1.52;;
21987;SDS011;11158;53.404;-1.510;2023-05-08T03:00:15;2.70;;;1.00;;
21987;SDS011;11158;53.404;-1.510;2023-05-08T03:03:14;3.15;;;1.42;;
21987;SDS011;11158;53.404;-1.510;2023-05-08T03:06:01;3.03;;;0.90;;
21987;SDS011;11158;53.404;-1.510;2023-05-08T03:08:51;4.72;;;1.15;;
21987;SDS011;11158;53.404;-1.510;2023-05-08T03:11:39;2.30;;;0.98;;
21987;SDS011;11158;53.404;-1.510;2023-05-08T03:14:26;3.35;;;0.90;;
21987;SDS011;11158;53.404;-1.510;2023-05-08T03:17:13;2.97;;;1.08;;
21987;SDS011;11158;53.404;-1.510;2023-05-08T03:20:03;3.10;;;1.20;;
21987;SDS011;11158;53.404;-1.510;2023-05-08T03:22:49;5.43;;;1.10;;
21987;SDS011;11158;53.404;-1.510;2023-05-08T03:25:38;3.13;;;1.48;;
21987;SDS011;11158;53.404;-1.510;2023-05-08T03:28:25;1.15;;;1.00;;
21987;SDS011;11158;53.404;-1.510;2023-05-08T03:31:11;1.58;;;1.00;;
21987;SDS011;11158;53.404;-1.510;2023-05-08T03:33:56;1.85;;;0.73;;
21987;SDS011;11158;53.404;-1.510;2023-05-08T03:36:41;1.70;;;0.90;;
21987;SDS011;11158;53.404;-1.510;2023-05-08T03:39:25;4.20;;;1.13;;
21987;SDS011;11158;53.404;-1.510;2023-05-08T03:42:10;4.75;;;1.05;;
21987;SDS011;11158;53.404;-1.510;2023-05-08T03:44:59;2.17;;;0.90;;
21987;SDS011;11158;53.404;-1.510;2023-05-08T03:47:46;2.78;;;1.20;;
21987;SDS011;11158;53.404;-1.510;2023-05-08T03:50:31;0.82;;;0.70;;
21987;SDS011;11158;53.404;-1.510;2023-05-08T03:53:17;2.15;;;0.95;;
21987;SDS011;11158;53.404;-1.510;2023-05-08T03:56:01;4.40;;;1.20;;
21987;SDS011;11158;53.404;-1.510;2023-05-08T04:01:48;2.78;;;1.20;;
21987;SDS011;11158;53.404;-1.510;2023-05-08T04:04:41;1.65;;;0.80;;
21987;SDS011;11158;53.404;-1.510;2023-05-08T04:07:30;3.88;;;1.08;;
21987;SDS011;11158;53.404;-1.510;2023-05-08T04:13:30;2.22;;;1.05;;
21987;SDS011;11158;53.404;-1.510;2023-05-08T04:16:20;3.00;;;1.00;;
21987;SDS011;11158;53.404;-1.510;2023-05-08T04:19:10;1.95;;;1.08;;
21987;SDS011;11158;53.404;-1.510;2023-05-08T04:22:03;3.28;;;0.98;;
21987;SDS011;11158;53.404;-1.510;2023-05-08T04:24:50;2.55;;;0.93;;
21987;SDS011;11158;53.404;-1.510;2023-05-08T04:27:37;5.15;;;1.20;;
21987;SDS011;11158;53.404;-1.510;2023-05-08T04:30:22;1.58;;;1.02;;
21987;SDS011;11158;53.404;-1.510;2023-05-08T04:33:07;2.42;;;0.98;;
21987;SDS011;11158;53.404;-1.510;2023-05-08T04:35:52;3.20;;;0.98;;
21987;SDS011;11158;53.404;-1.510;2023-05-08T04:38:37;4.45;;;1.33;;
21987;SDS011;11158;53.404;-1.510;2023-05-08T04:41:21;4.63;;;1.10;;
21987;SDS011;11158;53.404;-1.510;2023-05-08T04:44:05;2.30;;;1.17;;
21987;SDS011;11158;53.404;-1.510;2023-05-08T04:46:49;6.60;;;1.17;;
21987;SDS011;11158;53.404;-1.510;2023-05-08T04:49:33;7.75;;;1.33;;
21987;SDS011;11158;53.404;-1.510;2023-05-08T04:52:17;2.65;;;1.10;;
21987;SDS011;11158;53.404;-1.510;2023-05-08T04:55:01;3.35;;;1.10;;
21987;SDS011;11158;53.404;-1.510;2023-05-08T04:57:46;2.88;;;1.15;;
21987;SDS011;11158;53.404;-1.510;2023-05-08T05:00:30;3.25;;;1.25;;
21987;SDS011;11158;53.404;-1.510;2023-05-08T05:03:14;5.30;;;1.60;;
21987;SDS011;11158;53.404;-1.510;2023-05-08T05:05:58;3.88;;;1.42;;
21987;SDS011;11158;53.404;-1.510;2023-05-08T05:08:43;3.13;;;1.48;;
21987;SDS011;11158;53.404;-1.510;2023-05-08T05:11:28;3.13;;;1.45;;
21987;SDS011;11158;53.404;-1.510;2023-05-08T05:14:12;2.53;;;1.10;;
21987;SDS011;11158;53.404;-1.510;2023-05-08T05:16:55;5.10;;;1.35;;
21987;SDS011;11158;53.404;-1.510;2023-05-08T05:19:39;6.53;;;1.65;;
21987;SDS011;11158;53.404;-1.510;2023-05-08T05:22:23;3.38;;;1.60;;
21987;SDS011;11158;53.404;-1.510;2023-05-08T05:25:08;7.60;;;1.80;;
21987;SDS011;11158;53.404;-1.510;2023-05-08T05:27:52;3.70;;;1.52;;
21987;SDS011;11158;53.404;-1.510;2023-05-08T05:30:36;3.05;;;1.40;;
21987;SDS011;11158;53.404;-1.510;2023-05-08T05:33:20;2.55;;;1.52;;
21987;SDS011;11158;53.404;-1.510;2023-05-08T05:36:04;4.32;;;1.73;;
21987;SDS011;11158;53.404;-1.510;2023-05-08T05:38:49;7.72;;;1.80;;
21987;SDS011;11158;53.404;-1.510;2023-05-08T05:41:33;6.38;;;1.67;;
21987;SDS011;11158;53.404;-1.510;2023-05-08T05:44:17;4.32;;;2.30;;
21987;SDS011;11158;53.404;-1.510;2023-05-08T05:47:01;4.28;;;1.63;;
21987;SDS011;11158;53.404;-1.510;2023-05-08T05:49:47;4.22;;;1.77;;
21987;SDS011;11158;53.404;-1.510;2023-05-08T05:52:31;5.20;;;2.00;;
21987;SDS011;11158;53.404;-1.510;2023-05-08T05:55:16;4.25;;;1.58;;
21987;SDS011;11158;53.404;-1.510;2023-05-08T05:58:00;5.50;;;2.30;;
21987;SDS011;11158;53.404;-1.510;2023-05-08T06:00:44;4.53;;;1.58;;
21987;SDS011;11158;53.404;-1.510;2023-05-08T06:03:28;5.25;;;1.95;;
21987;SDS011;11158;53.404;-1.510;2023-05-08T06:06:12;5.10;;;1.88;;
21987;SDS011;11158;53.404;-1.510;2023-05-08T06:08:56;4.03;;;1.60;;
21987;SDS011;11158;53.404;-1.510;2023-05-08T06:11:40;3.92;;;1.85;;
21987;SDS011;11158;53.404;-1.510;2023-05-08T06:14:24;3.92;;;1.92;;
21987;SDS011;11158;53.404;-1.510;2023-05-08T06:17:08;7.07;;;2.17;;
21987;SDS011;11158;53.404;-1.510;2023-05-08T06:19:52;3.20;;;1.92;;
21987;SDS011;11158;53.404;-1.510;2023-05-08T06:22:39;5.25;;;1.80;;
21987;SDS011;11158;53.404;-1.510;2023-05-08T06:25:24;4.07;;;1.70;;
21987;SDS011;11158;53.404;-1.510;2023-05-08T06:28:08;6.30;;;1.83;;
21987;SDS011;11158;53.404;-1.510;2023-05-08T06:30:52;4.57;;;2.08;;
21987;SDS011;11158;53.404;-1.510;2023-05-08T06:33:36;3.90;;;2.13;;
21987;SDS011;11158;53.404;-1.510;2023-05-08T06:36:21;7.05;;;1.95;;
21987;SDS011;11158;53.404;-1.510;2023-05-08T06:39:05;4.20;;;1.60;;
21987;SDS011;11158;53.404;-1.510;2023-05-08T06:41:50;3.95;;;1.83;;
21987;SDS011;11158;53.404;-1.510;2023-05-08T06:44:34;1.73;;;1.40;;
21987;SDS011;11158;53.404;-1.510;2023-05-08T06:47:19;6.80;;;2.42;;
21987;SDS011;11158;53.404;-1.510;2023-05-08T06:50:03;3.50;;;1.65;;
21987;SDS011;11158;53.404;-1.510;2023-05-08T06:52:48;4.40;;;1.70;;
21987;SDS011;11158;53.404;-1.510;2023-05-08T06:55:32;4.57;;;1.95;;
21987;SDS011;11158;53.404;-1.510;2023-05-08T06:58:16;4.78;;;1.63;;
21987;SDS011;11158;53.404;-1.510;2023-05-08T07:01:00;3.88;;;1.63;;
21987;SDS011;11158;53.404;-1.510;2023-05-08T07:03:44;3.60;;;1.75;;
21987;SDS011;11158;53.404;-1.510;2023-05-08T07:06:29;4.13;;;1.77;;
21987;SDS011;11158;53.404;-1.510;2023-05-08T07:09:17;3.47;;;1.65;;
21987;SDS011;11158;53.404;-1.510;2023-05-08T07:12:01;4.70;;;1.50;;
21987;SDS011;11158;53.404;-1.510;2023-05-08T07:14:46;2.08;;;1.35;;
21987;SDS011;11158;53.404;-1.510;2023-05-08T07:17:30;4.80;;;1.67;;
21987;SDS011;11158;53.404;-1.510;2023-05-08T07:20:15;4.50;;;1.63;;
21987;SDS011;11158;53.404;-1.510;2023-05-08T07:22:59;2.90;;;1.77;;
21987;SDS011;11158;53.404;-1.510;2023-05-08T07:25:44;3.42;;;1.70;;
21987;SDS011;11158;53.404;-1.510;2023-05-08T07:28:28;4.95;;;1.65;;
21987;SDS011;11158;53.404;-1.510;2023-05-08T07:31:14;3.15;;;1.80;;
21987;SDS011;11158;53.404;-1.510;2023-05-08T07:33:58;6.75;;;2.10;;
21987;SDS011;11158;53.404;-1.510;2023-05-08T07:36:42;3.72;;;1.95;;
21987;SDS011;11158;53.404;-1.510;2023-05-08T07:39:26;6.45;;;2.03;;
21987;SDS011;11158;53.404;-1.510;2023-05-08T07:42:10;3.75;;;2.20;;
21987;SDS011;11158;53.404;-1.510;2023-05-08T07:44:55;4.88;;;2.38;;
21987;SDS011;11158;53.404;-1.510;2023-05-08T07:47:49;6.82;;;2.30;;
21987;SDS011;11158;53.404;-1.510;2023-05-08T07:50:34;4.88;;;2.42;;
21987;SDS011;11158;53.404;-1.510;2023-05-08T07:53:19;4.93;;;1.85;;
21987;SDS011;11158;53.404;-1.510;2023-05-08T07:56:03;5.43;;;2.10;;
21987;SDS011;11158;53.404;-1.510;2023-05-08T07:58:48;4.50;;;2.58;;
21987;SDS011;11158;53.404;-1.510;2023-05-08T08:01:32;4.63;;;2.00;;
21987;SDS011;11158;53.404;-1.510;2023-05-08T08:04:17;4.13;;;2.17;;
21987;SDS011;11158;53.404;-1.510;2023-05-08T08:07:01;4.10;;;2.50;;
21987;SDS011;11158;53.404;-1.510;2023-05-08T08:09:45;4.28;;;2.28;;
21987;SDS011;11158;53.404;-1.510;2023-05-08T08:12:29;3.63;;;2.17;;
21987;SDS011;11158;53.404;-1.510;2023-05-08T08:15:15;4.18;;;2.10;;
21987;SDS011;11158;53.404;-1.510;2023-05-08T08:17:59;4.18;;;2.47;;
21987;SDS011;11158;53.404;-1.510;2023-05-08T08:20:43;5.18;;;2.50;;
21987;SDS011;11158;53.404;-1.510;2023-05-08T08:23:27;5.95;;;2.55;;
21987;SDS011;11158;53.404;-1.510;2023-05-08T08:26:11;4.82;;;2.40;;
21987;SDS011;11158;53.404;-1.510;2023-05-08T08:28:55;3.03;;;2.13;;
21987;SDS011;11158;53.404;-1.510;2023-05-08T08:31:39;5.53;;;2.50;;
21987;SDS011;11158;53.404;-1.510;2023-05-08T08:34:23;4.45;;;2.22;;
21987;SDS011;11158;53.404;-1.510;2023-05-08T08:37:07;3.70;;;2.40;;
21987;SDS011;11158;53.404;-1.510;2023-05-08T08:39:52;4.70;;;2.40;;
21987;SDS011;11158;53.404;-1.510;2023-05-08T08:42:36;4.72;;;2.65;;
21987;SDS011;11158;53.404;-1.510;2023-05-08T08:45:20;3.90;;;2.22;;
21987;SDS011;11158;53.404;-1.510;2023-05-08T08:48:07;5.50;;;2.30;;
21987;SDS011;11158;53.404;-1.510;2023-05-08T08:50:58;6.85;;;2.20;;
21987;SDS011;11158;53.404;-1.510;2023-05-08T08:53:45;5.30;;;2.15;;
21987;SDS011;11158;53.404;-1.510;2023-05-08T08:56:33;5.78;;;2.20;;
21987;SDS011;11158;53.404;-1.510;2023-05-08T08:59:21;3.00;;;2.13;;
21987;SDS011;11158;53.404;-1.510;2023-05-08T09:02:09;3.25;;;2.40;;
21987;SDS011;11158;53.404;-1.510;2023-05-08T09:04:57;4.60;;;2.05;;
21987;SDS011;11158;53.404;-1.510;2023-05-08T09:07:42;5.80;;;2.13;;
21987;SDS011;11158;53.404;-1.510;2023-05-08T09:10:26;3.03;;;2.00;;
21987;SDS011;11158;53.404;-1.510;2023-05-08T09:13:11;3.42;;;2.00;;
21987;SDS011;11158;53.404;-1.510;2023-05-08T09:15:59;3.33;;;1.77;;
21987;SDS011;11158;53.404;-1.510;2023-05-08T09:18:45;3.10;;;1.55;;
21987;SDS011;11158;53.404;-1.510;2023-05-08T09:21:29;4.22;;;2.15;;
21987;SDS011;11158;53.404;-1.510;2023-05-08T09:24:13;3.15;;;1.42;;
21987;SDS011;11158;53.404;-1.510;2023-05-08T09:26:57;1.80;;;1.67;;
21987;SDS011;11158;53.404;-1.510;2023-05-08T09:29:41;1.90;;;1.70;;
21987;SDS011;11158;53.404;-1.510;2023-05-08T09:32:47;2.10;;;1.90;;
21987;SDS011;11158;53.404;-1.510;2023-05-08T09:35:35;5.80;;;2.97;;
21987;SDS011;11158;53.404;-1.510;2023-05-08T09:38:33;2.67;;;1.73;;
21987;SDS011;11158;53.404;-1.510;2023-05-08T09:41:18;3.20;;;1.60;;
21987;SDS011;11158;53.404;-1.510;2023-05-08T09:44:05;6.10;;;1.73;;
21987;SDS011;11158;53.404;-1.510;2023-05-08T09:46:49;4.00;;;1.80;;
21987;SDS011;11158;53.404;-1.510;2023-05-08T09:49:34;2.13;;;1.42;;
21987;SDS011;11158;53.404;-1.510;2023-05-08T09:52:18;2.38;;;1.52;;
21987;SDS011;11158;53.404;-1.510;2023-05-08T09:55:03;1.55;;;1.40;;
21987;SDS011;11158;53.404;-1.510;2023-05-08T09:57:53;2.40;;;1.67;;
21987;SDS011;11158;53.404;-1.510;2023-05-08T10:00:38;4.32;;;1.50;;
21987;SDS011;11158;53.404;-1.510;2023-05-08T10:03:23;1.45;;;1.30;;
21987;SDS011;11158;53.404;-1.510;2023-05-08T10:06:28;1.45;;;1.35;;
21987;SDS011;11158;53.404;-1.510;2023-05-08T10:09:13;3.20;;;1.48;;
21987;SDS011;11158;53.404;-1.510;2023-05-08T10:11:58;4.63;;;1.30;;
21987;SDS011;11158;53.404;-1.510;2023-05-08T10:14:42;2.03;;;1.10;;
21987;SDS011;11158;53.404;-1.510;2023-05-08T10:17:37;2.17;;;1.40;;
21987;SDS011;11158;53.404;-1.510;2023-05-08T10:20:42;1.85;;;1.73;;
21987;SDS011;11158;53.404;-1.510;2023-05-08T10:23:32;1.33;;;1.23;;
21987;SDS011;11158;53.404;-1.510;2023-05-08T10:26:35;1.88;;;1.50;;
21987;SDS011;11158;53.404;-1.510;2023-05-08T10:29:32;1.45;;;1.30;;
21987;SDS011;11158;53.404;-1.510;2023-05-08T10:32:24;1.35;;;1.00;;
21987;SDS011;11158;53.404;-1.510;2023-05-08T10:35:09;1.23;;;1.00;;
21987;SDS011;11158;53.404;-1.510;2023-05-08T10:37:54;2.72;;;1.00;;
21987;SDS011;11158;53.404;-1.510;2023-05-08T10:40:39;1.40;;;1.02;;
21987;SDS011;11158;53.404;-1.510;2023-05-08T10:43:24;0.75;;;0.70;;
21987;SDS011;11158;53.404;-1.510;2023-05-08T10:46:21;1.40;;;1.30;;
21987;SDS011;11158;53.404;-1.510;2023-05-08T10:49:19;1.05;;;0.90;;
21987;SDS011;11158;53.404;-1.510;2023-05-08T10:55:14;1.23;;;0.70;;
21987;SDS011;11158;53.404;-1.510;2023-05-08T10:58:06;0.95;;;0.80;;
21987;SDS011;11158;53.404;-1.510;2023-05-08T11:03:46;1.80;;;0.70;;
21987;SDS011;11158;53.404;-1.510;2023-05-08T11:06:43;1.20;;;0.75;;
21987;SDS011;11158;53.404;-1.510;2023-05-08T11:09:29;1.05;;;0.60;;
21987;SDS011;11158;53.404;-1.510;2023-05-08T11:12:28;1.25;;;0.80;;
21987;SDS011;11158;53.404;-1.510;2023-05-08T11:15:14;0.80;;;0.80;;
21987;SDS011;11158;53.404;-1.510;2023-05-08T11:17:58;1.20;;;0.60;;
21987;SDS011;11158;53.404;-1.510;2023-05-08T11:21:01;1.08;;;0.98;;
21987;SDS011;11158;53.404;-1.510;2023-05-08T11:23:54;1.45;;;0.90;;
21987;SDS011;11158;53.404;-1.510;2023-05-08T11:26:39;1.05;;;0.80;;
21987;SDS011;11158;53.404;-1.510;2023-05-08T11:29:23;1.17;;;1.00;;
21987;SDS011;11158;53.404;-1.510;2023-05-08T11:32:08;2.15;;;1.95;;
21987;SDS011;11158;53.404;-1.510;2023-05-08T11:34:52;3.25;;;1.20;;
21987;SDS011;11158;53.404;-1.510;2023-05-08T11:37:36;1.95;;;0.90;;
21987;SDS011;11158;53.404;-1.510;2023-05-08T11:43:35;1.42;;;1.20;;
21987;SDS011;11158;53.404;-1.510;2023-05-08T11:46:46;1.30;;;1.20;;
21987;SDS011;11158;53.404;-1.510;2023-05-08T11:49:36;1.60;;;1.35;;
21987;SDS011;11158;53.404;-1.510;2023-05-08T11:52:20;1.83;;;1.55;;
21987;SDS011;11158;53.404;-1.510;2023-05-08T11:55:05;1.20;;;1.10;;
21987;SDS011;11158;53.404;-1.510;2023-05-08T11:57:53;1.77;;;1.05;;
21987;SDS011;11158;53.404;-1.510;2023-05-08T12:00:42;1.30;;;0.93;;
21987;SDS011;11158;53.404;-1.510;2023-05-08T12:03:28;1.77;;;0.90;;
21987;SDS011;11158;53.404;-1.510;2023-05-08T12:06:12;1.00;;;1.00;;
21987;SDS011;11158;53.404;-1.510;2023-05-08T12:08:57;1.25;;;1.05;;
21987;SDS011;11158;53.404;-1.510;2023-05-08T12:11:42;0.82;;;0.82;;
21987;SDS011;11158;53.404;-1.510;2023-05-08T12:14:28;1.90;;;0.90;;
21987;SDS011;11158;53.404;-1.510;2023-05-08T12:17:15;1.00;;;1.00;;
21987;SDS011;11158;53.404;-1.510;2023-05-08T12:20:10;0.80;;;0.80;;
21987;SDS011;11158;53.404;-1.510;2023-05-08T12:22:55;1.40;;;1.20;;
21987;SDS011;11158;53.404;-1.510;2023-05-08T12:25:39;3.45;;;1.35;;
21987;SDS011;11158;53.404;-1.510;2023-05-08T12:28:24;1.77;;;1.15;;
21987;SDS011;11158;53.404;-1.510;2023-05-08T12:31:08;1.48;;;1.38;;
21987;SDS011;11158;53.404;-1.510;2023-05-08T12:33:53;1.30;;;1.20;;
21987;SDS011;11158;53.404;-1.510;2023-05-08T12:36:38;2.50;;;1.40;;
21987;SDS011;11158;53.404;-1.510;2023-05-08T12:39:22;1.30;;;1.10;;
21987;SDS011;11158;53.404;-1.510;2023-05-08T12:42:08;1.30;;;1.20;;
21987;SDS011;11158;53.404;-1.510;2023-05-08T12:44:52;1.10;;;1.00;;
21987;SDS011;11158;53.404;-1.510;2023-05-08T12:47:36;2.03;;;1.42;;
21987;SDS011;11158;53.404;-1.510;2023-05-08T12:50:20;1.02;;;0.93;;
21987;SDS011;11158;53.404;-1.510;2023-05-08T12:53:05;1.00;;;0.98;;
21987;SDS011;11158;53.404;-1.510;2023-05-08T12:55:52;2.70;;;1.10;;
21987;SDS011;11158;53.404;-1.510;2023-05-08T12:58:37;1.20;;;1.10;;
21987;SDS011;11158;53.404;-1.510;2023-05-08T13:01:21;1.33;;;1.10;;
21987;SDS011;11158;53.404;-1.510;2023-05-08T13:04:06;2.58;;;1.15;;
21987;SDS011;11158;53.404;-1.510;2023-05-08T13:06:56;1.77;;;1.10;;
21987;SDS011;11158;53.404;-1.510;2023-05-08T13:09:54;1.42;;;1.10;;
21987;SDS011;11158;53.404;-1.510;2023-05-08T13:12:39;1.33;;;1.23;;
21987;SDS011;11158;53.404;-1.510;2023-05-08T13:15:23;1.25;;;1.10;;
21987;SDS011;11158;53.404;-1.510;2023-05-08T13:18:07;1.42;;;1.10;;
21987;SDS011;11158;53.404;-1.510;2023-05-08T13:20:52;1.10;;;1.10;;
21987;SDS011;11158;53.404;-1.510;2023-05-08T13:23:39;1.27;;;1.17;;
21987;SDS011;11158;53.404;-1.510;2023-05-08T13:26:26;1.75;;;1.20;;
21987;SDS011;11158;53.404;-1.510;2023-05-08T13:29:10;3.60;;;1.60;;
21987;SDS011;11158;53.404;-1.510;2023-05-08T13:31:54;1.58;;;1.48;;
21987;SDS011;11158;53.404;-1.510;2023-05-08T13:34:38;3.35;;;2.10;;
21987;SDS011;11158;53.404;-1.510;2023-05-08T13:37:22;2.00;;;1.90;;
21987;SDS011;11158;53.404;-1.510;2023-05-08T13:40:06;2.20;;;2.00;;
21987;SDS011;11158;53.404;-1.510;2023-05-08T13:42:51;2.60;;;2.40;;
21987;SDS011;11158;53.404;-1.510;2023-05-08T13:45:35;2.00;;;1.90;;
21987;SDS011;11158;53.404;-1.510;2023-05-08T13:48:19;2.38;;;2.17;;
21987;SDS011;11158;53.404;-1.510;2023-05-08T13:51:03;3.13;;;2.05;;
21987;SDS011;11158;53.404;-1.510;2023-05-08T13:53:48;2.00;;;1.88;;
21987;SDS011;11158;53.404;-1.510;2023-05-08T13:56:32;2.13;;;1.90;;
21987;SDS011;11158;53.404;-1.510;2023-05-08T13:59:16;2.15;;;1.90;;
21987;SDS011;11158;53.404;-1.510;2023-05-08T14:02:00;2.00;;;1.90;;
21987;SDS011;11158;53.404;-1.510;2023-05-08T14:04:44;3.72;;;1.90;;
21987;SDS011;11158;53.404;-1.510;2023-05-08T14:07:28;2.10;;;2.00;;
21987;SDS011;11158;53.404;-1.510;2023-05-08T14:10:12;2.65;;;2.03;;
21987;SDS011;11158;53.404;-1.510;2023-05-08T14:12:57;1.90;;;1.80;;
21987;SDS011;11158;53.404;-1.510;2023-05-08T14:15:41;3.08;;;2.10;;
21987;SDS011;11158;53.404;-1.510;2023-05-08T14:18:25;2.88;;;2.65;;
21987;SDS011;11158;53.404;-1.510;2023-05-08T14:21:09;2.38;;;2.15;;
21987;SDS011;11158;53.404;-1.510;2023-05-08T14:23:53;2.47;;;2.28;;
21987;SDS011;11158;53.404;-1.510;2023-05-08T14:26:37;2.42;;;2.10;;
21987;SDS011;11158;53.404;-1.510;2023-05-08T14:29:21;2.63;;;2.42;;
21987;SDS011;11158;53.404;-1.510;2023-05-08T14:32:05;3.17;;;2.10;;
21987;SDS011;11158;53.404;-1.510;2023-05-08T14:34:52;2.00;;;1.70;;
21987;SDS011;11158;53.404;-1.510;2023-05-08T14:37:36;2.47;;;2.00;;
21987;SDS011;11158;53.404;-1.510;2023-05-08T14:40:20;2.25;;;2.03;;
21987;SDS011;11158;53.404;-1.510;2023-05-08T14:43:04;2.60;;;1.67;;
21987;SDS011;11158;53.404;-1.510;2023-05-08T14:45:48;3.38;;;2.60;;
21987;SDS011;11158;53.404;-1.510;2023-05-08T14:48:32;2.50;;;1.90;;
21987;SDS011;11158;53.404;-1.510;2023-05-08T14:51:16;2.40;;;2.17;;
21987;SDS011;11158;53.404;-1.510;2023-05-08T14:54:02;2.45;;;2.10;;
21987;SDS011;11158;53.404;-1.510;2023-05-08T14:56:47;2.45;;;2.10;;
21987;SDS011;11158;53.404;-1.510;2023-05-08T14:59:31;2.67;;;2.47;;
21987;SDS011;11158;53.404;-1.510;2023-05-08T15:02:16;2.20;;;2.00;;
21987;SDS011;11158;53.404;-1.510;2023-05-08T15:05:00;3.13;;;2.47;;
21987;SDS011;11158;53.404;-1.510;2023-05-08T15:07:44;2.03;;;1.90;;
21987;SDS011;11158;53.404;-1.510;2023-05-08T15:10:29;1.90;;;1.80;;
21987;SDS011;11158;53.404;-1.510;2023-05-08T15:13:13;2.63;;;2.03;;
21987;SDS011;11158;53.404;-1.510;2023-05-08T15:15:57;2.75;;;2.50;;
21987;SDS011;11158;53.404;-1.510;2023-05-08T15:18:42;1.92;;;1.70;;
21987;SDS011;11158;53.404;-1.510;2023-05-08T15:21:26;2.28;;;1.77;;
21987;SDS011;11158;53.404;-1.510;2023-05-08T15:24:11;1.85;;;1.65;;
21987;SDS011;11158;53.404;-1.510;2023-05-08T15:26:54;2.63;;;1.80;;
21987;SDS011;11158;53.404;-1.510;2023-05-08T15:29:39;1.75;;;1.65;;
21987;SDS011;11158;53.404;-1.510;2023-05-08T15:32:23;2.13;;;1.58;;
21987;SDS011;11158;53.404;-1.510;2023-05-08T15:35:07;2.75;;;1.60;;
21987;SDS011;11158;53.404;-1.510;2023-05-08T15:37:51;3.38;;;2.03;;
21987;SDS011;11158;53.404;-1.510;2023-05-08T15:40:37;1.90;;;1.80;;
21987;SDS011;11158;53.404;-1.510;2023-05-08T15:43:21;2.67;;;2.17;;
21987;SDS011;11158;53.404;-1.510;2023-05-08T15:46:05;1.67;;;1.58;;
21987;SDS011;11158;53.404;-1.510;2023-05-08T15:48:49;2.13;;;2.03;;
21987;SDS011;11158;53.404;-1.510;2023-05-08T15:51:33;2.03;;;1.92;;
21987;SDS011;11158;53.404;-1.510;2023-05-08T15:54:18;2.70;;;2.50;;
21987;SDS011;11158;53.404;-1.510;2023-05-08T15:57:02;2.78;;;2.53;;
21987;SDS011;11158;53.404;-1.510;2023-05-08T15:59:46;3.65;;;2.20;;
21987;SDS011;11158;53.404;-1.510;2023-05-08T16:02:30;2.45;;;2.15;;
21987;SDS011;11158;53.404;-1.510;2023-05-08T16:05:14;2.42;;;2.20;;
21987;SDS011;11158;53.404;-1.510;2023-05-08T16:07:58;2.10;;;1.90;;
21987;SDS011;11158;53.404;-1.510;2023-05-08T16:10:42;2.10;;;2.00;;
21987;SDS011;11158;53.404;-1.510;2023-05-08T16:13:27;2.38;;;2.20;;
21987;SDS011;11158;53.404;-1.510;2023-05-08T16:16:11;2.00;;;1.90;;
21987;SDS011;11158;53.404;-1.510;2023-05-08T16:18:55;2.00;;;1.90;;
21987;SDS011;11158;53.404;-1.510;2023-05-08T16:21:39;2.88;;;2.40;;
21987;SDS011;11158;53.404;-1.510;2023-05-08T16:24:23;3.20;;;2.90;;
21987;SDS011;11158;53.404;-1.510;2023-05-08T16:27:07;3.30;;;3.00;;
21987;SDS011;11158;53.404;-1.510;2023-05-08T16:29:51;4.90;;;2.25;;
21987;SDS011;11158;53.404;-1.510;2023-05-08T16:32:35;2.78;;;2.53;;
21987;SDS011;11158;53.404;-1.510;2023-05-08T16:35:20;2.80;;;2.50;;
21987;SDS011;11158;53.404;-1.510;2023-05-08T16:38:05;8.50;;;3.17;;
21987;SDS011;11158;53.404;-1.510;2023-05-08T16:40:49;3.15;;;2.67;;
21987;SDS011;11158;53.404;-1.510;2023-05-08T16:43:33;2.83;;;2.60;;
21987;SDS011;11158;53.404;-1.510;2023-05-08T16:46:17;3.28;;;2.58;;
21987;SDS011;11158;53.404;-1.510;2023-05-08T16:49:02;2.53;;;2.20;;
21987;SDS011;11158;53.404;-1.510;2023-05-08T16:51:46;2.20;;;2.00;;
21987;SDS011;11158;53.404;-1.510;2023-05-08T16:54:30;2.25;;;2.05;;
21987;SDS011;11158;53.404;-1.510;2023-05-08T16:57:14;2.42;;;2.08;;
21987;SDS011;11158;53.404;-1.510;2023-05-08T16:59:58;2.33;;;1.75;;
21987;SDS011;11158;53.404;-1.510;2023-05-08T17:02:50;2.30;;;1.53;;